sensor_id;sensor_type;location;lat;lon;timestamp;P1;durP1;ratioP1;P2;durP2;ratioP2
5981;SDS011;3018;48.730;9.336;2023-10-08T00:01:34;5.18;;;4.28;;
5981;SDS011;3018;48.730;9.336;2023-10-08T00:04:05;5.88;;;5.05;;
5981;SDS011;3018;48.730;9.336;2023-10-08T00:06:34;9.15;;;5.70;;
5981;SDS011;3018;48.730;9.336;2023-10-08T00:09:00;7.35;;;4.53;;
5981;SDS011;3018;48.730;9.336;2023-10-08T00:11:31;8.80;;;5.40;;
5981;SDS011;3018;48.730;9.336;2023-10-08T00:13:57;9.38;;;5.18;;
5981;SDS011;3018;48.730;9.336;2023-10-08T00:16:26;11.10;;;5.25;;
5981;SDS011;3018;48.730;9.336;2023-10-08T00:18:53;9.23;;;4.88;;
5981;SDS011;3018;48.730;9.336;2023-10-08T00:21:24;10.45;;;5.07;;
5981;SDS011;3018;48.730;9.336;2023-10-08T00:23:53;7.55;;;5.25;;
5981;SDS011;3018;48.730;9.336;2023-10-08T00:26:23;7.45;;;5.15;;
5981;SDS011;3018;48.730;9.336;2023-10-08T00:28:53;6.38;;;4.68;;
5981;SDS011;3018;48.730;9.336;2023-10-08T00:31:21;7.32;;;5.13;;
5981;SDS011;3018;48.730;9.336;2023-10-08T00:33:50;7.18;;;5.25;;
5981;SDS011;3018;48.730;9.336;2023-10-08T00:36:17;7.15;;;5.15;;
5981;SDS011;3018;48.730;9.336;2023-10-08T00:38:44;8.93;;;5.55;;
5981;SDS011;3018;48.730;9.336;2023-10-08T00:41:13;8.00;;;5.57;;
5981;SDS011;3018;48.730;9.336;2023-10-08T00:43:40;12.18;;;5.75;;
5981;SDS011;3018;48.730;9.336;2023-10-08T00:46:09;7.53;;;5.63;;
5981;SDS011;3018;48.730;9.336;2023-10-08T00:48:43;12.75;;;5.75;;
5981;SDS011;3018;48.730;9.336;2023-10-08T00:51:10;11.15;;;5.50;;
5981;SDS011;3018;48.730;9.336;2023-10-08T00:53:51;8.13;;;5.90;;
5981;SDS011;3018;48.730;9.336;2023-10-08T00:56:19;9.50;;;5.60;;
5981;SDS011;3018;48.730;9.336;2023-10-08T00:58:48;9.65;;;5.32;;
5981;SDS011;3018;48.730;9.336;2023-10-08T01:01:18;8.13;;;5.60;;
5981;SDS011;3018;48.730;9.336;2023-10-08T01:03:46;7.97;;;4.95;;
5981;SDS011;3018;48.730;9.336;2023-10-08T01:06:14;10.10;;;5.22;;
5981;SDS011;3018;48.730;9.336;2023-10-08T01:08:43;7.53;;;4.78;;
5981;SDS011;3018;48.730;9.336;2023-10-08T01:11:20;8.63;;;4.85;;
5981;SDS011;3018;48.730;9.336;2023-10-08T01:13:56;8.10;;;4.75;;
5981;SDS011;3018;48.730;9.336;2023-10-08T01:16:24;8.05;;;4.57;;
5981;SDS011;3018;48.730;9.336;2023-10-08T01:18:52;6.38;;;4.65;;
5981;SDS011;3018;48.730;9.336;2023-10-08T01:21:19;8.00;;;5.35;;
5981;SDS011;3018;48.730;9.336;2023-10-08T01:24:00;7.43;;;4.60;;
5981;SDS011;3018;48.730;9.336;2023-10-08T01:26:27;7.38;;;5.15;;
5981;SDS011;3018;48.730;9.336;2023-10-08T01:28:56;6.90;;;4.88;;
5981;SDS011;3018;48.730;9.336;2023-10-08T01:31:27;10.52;;;5.03;;
5981;SDS011;3018;48.730;9.336;2023-10-08T01:33:53;13.27;;;5.50;;
5981;SDS011;3018;48.730;9.336;2023-10-08T01:36:21;7.82;;;4.85;;
5981;SDS011;3018;48.730;9.336;2023-10-08T01:38:48;6.97;;;4.95;;
5981;SDS011;3018;48.730;9.336;2023-10-08T01:41:16;7.50;;;4.30;;
5981;SDS011;3018;48.730;9.336;2023-10-08T01:43:44;7.35;;;4.78;;
5981;SDS011;3018;48.730;9.336;2023-10-08T01:46:10;11.30;;;5.60;;
5981;SDS011;3018;48.730;9.336;2023-10-08T01:48:37;10.38;;;5.28;;
5981;SDS011;3018;48.730;9.336;2023-10-08T01:51:04;8.85;;;5.43;;
5981;SDS011;3018;48.730;9.336;2023-10-08T01:53:34;8.73;;;5.55;;
5981;SDS011;3018;48.730;9.336;2023-10-08T01:56:01;7.60;;;5.28;;
5981;SDS011;3018;48.730;9.336;2023-10-08T01:58:30;10.43;;;5.95;;
5981;SDS011;3018;48.730;9.336;2023-10-08T02:00:58;7.60;;;5.75;;
5981;SDS011;3018;48.730;9.336;2023-10-08T02:03:25;8.75;;;5.72;;
5981;SDS011;3018;48.730;9.336;2023-10-08T02:05:52;8.35;;;5.32;;
5981;SDS011;3018;48.730;9.336;2023-10-08T02:08:23;12.75;;;5.38;;
5981;SDS011;3018;48.730;9.336;2023-10-08T02:10:51;7.15;;;5.28;;
5981;SDS011;3018;48.730;9.336;2023-10-08T02:13:18;9.82;;;4.50;;
5981;SDS011;3018;48.730;9.336;2023-10-08T02:15:47;5.88;;;5.00;;
5981;SDS011;3018;48.730;9.336;2023-10-08T02:18:16;7.43;;;5.63;;
5981;SDS011;3018;48.730;9.336;2023-10-08T02:20:43;8.13;;;5.63;;
5981;SDS011;3018;48.730;9.336;2023-10-08T02:23:09;8.75;;;5.82;;
5981;SDS011;3018;48.730;9.336;2023-10-08T02:25:36;7.78;;;4.70;;
5981;SDS011;3018;48.730;9.336;2023-10-08T02:28:05;7.72;;;5.63;;
5981;SDS011;3018;48.730;9.336;2023-10-08T02:30:33;6.78;;;5.10;;
5981;SDS011;3018;48.730;9.336;2023-10-08T02:33:01;9.18;;;5.60;;
5981;SDS011;3018;48.730;9.336;2023-10-08T02:35:27;7.70;;;5.30;;
5981;SDS011;3018;48.730;9.336;2023-10-08T02:37:53;7.22;;;5.15;;
5981;SDS011;3018;48.730;9.336;2023-10-08T02:40:20;6.70;;;4.75;;
5981;SDS011;3018;48.730;9.336;2023-10-08T02:42:52;8.23;;;5.15;;
5981;SDS011;3018;48.730;9.336;2023-10-08T02:45:22;5.40;;;4.60;;
5981;SDS011;3018;48.730;9.336;2023-10-08T02:47:50;7.05;;;4.35;;
5981;SDS011;3018;48.730;9.336;2023-10-08T02:50:19;6.63;;;4.70;;
5981;SDS011;3018;48.730;9.336;2023-10-08T02:52:47;6.65;;;4.78;;
5981;SDS011;3018;48.730;9.336;2023-10-08T02:55:15;5.20;;;4.10;;
5981;SDS011;3018;48.730;9.336;2023-10-08T02:57:52;5.35;;;3.83;;
5981;SDS011;3018;48.730;9.336;2023-10-08T03:00:19;6.28;;;4.18;;
5981;SDS011;3018;48.730;9.336;2023-10-08T03:02:45;4.20;;;3.80;;
5981;SDS011;3018;48.730;9.336;2023-10-08T03:05:12;7.88;;;4.22;;
5981;SDS011;3018;48.730;9.336;2023-10-08T03:07:42;5.40;;;4.72;;
5981;SDS011;3018;48.730;9.336;2023-10-08T03:10:09;4.75;;;3.72;;
5981;SDS011;3018;48.730;9.336;2023-10-08T03:12:42;6.32;;;4.03;;
5981;SDS011;3018;48.730;9.336;2023-10-08T03:15:10;5.05;;;3.95;;
5981;SDS011;3018;48.730;9.336;2023-10-08T03:17:52;5.78;;;4.35;;
5981;SDS011;3018;48.730;9.336;2023-10-08T03:20:19;6.05;;;4.30;;
5981;SDS011;3018;48.730;9.336;2023-10-08T03:23:08;6.18;;;3.75;;
5981;SDS011;3018;48.730;9.336;2023-10-08T03:25:47;6.88;;;3.60;;
5981;SDS011;3018;48.730;9.336;2023-10-08T03:28:15;6.75;;;3.67;;
5981;SDS011;3018;48.730;9.336;2023-10-08T03:30:41;5.78;;;3.70;;
5981;SDS011;3018;48.730;9.336;2023-10-08T03:33:16;5.88;;;3.70;;
5981;SDS011;3018;48.730;9.336;2023-10-08T03:35:47;5.40;;;3.53;;
5981;SDS011;3018;48.730;9.336;2023-10-08T03:38:15;4.47;;;3.38;;
5981;SDS011;3018;48.730;9.336;2023-10-08T03:40:47;6.43;;;3.70;;
5981;SDS011;3018;48.730;9.336;2023-10-08T03:43:15;7.70;;;3.72;;
5981;SDS011;3018;48.730;9.336;2023-10-08T03:45:48;5.47;;;3.85;;
5981;SDS011;3018;48.730;9.336;2023-10-08T03:48:16;6.68;;;3.78;;
5981;SDS011;3018;48.730;9.336;2023-10-08T03:50:43;6.45;;;3.45;;
5981;SDS011;3018;48.730;9.336;2023-10-08T03:53:10;4.85;;;3.55;;
5981;SDS011;3018;48.730;9.336;2023-10-08T03:55:38;6.45;;;3.83;;
5981;SDS011;3018;48.730;9.336;2023-10-08T03:58:06;7.70;;;4.15;;
5981;SDS011;3018;48.730;9.336;2023-10-08T04:00:36;6.00;;;3.72;;
5981;SDS011;3018;48.730;9.336;2023-10-08T04:03:06;5.90;;;4.13;;
5981;SDS011;3018;48.730;9.336;2023-10-08T04:05:36;4.93;;;3.78;;
5981;SDS011;3018;48.730;9.336;2023-10-08T04:08:24;6.60;;;4.18;;
5981;SDS011;3018;48.730;9.336;2023-10-08T04:11:08;7.28;;;4.07;;
5981;SDS011;3018;48.730;9.336;2023-10-08T04:13:47;8.23;;;3.80;;
5981;SDS011;3018;48.730;9.336;2023-10-08T04:16:13;7.55;;;4.30;;
5981;SDS011;3018;48.730;9.336;2023-10-08T04:18:43;5.10;;;4.30;;
5981;SDS011;3018;48.730;9.336;2023-10-08T04:21:10;8.23;;;4.45;;
5981;SDS011;3018;48.730;9.336;2023-10-08T04:23:39;6.07;;;4.03;;
5981;SDS011;3018;48.730;9.336;2023-10-08T04:26:05;8.57;;;4.18;;
5981;SDS011;3018;48.730;9.336;2023-10-08T04:28:33;6.72;;;4.35;;
5981;SDS011;3018;48.730;9.336;2023-10-08T04:31:00;9.48;;;4.47;;
5981;SDS011;3018;48.730;9.336;2023-10-08T04:33:39;8.20;;;4.72;;
5981;SDS011;3018;48.730;9.336;2023-10-08T04:36:06;9.15;;;4.75;;
5981;SDS011;3018;48.730;9.336;2023-10-08T04:38:33;6.82;;;4.70;;
5981;SDS011;3018;48.730;9.336;2023-10-08T04:41:04;8.07;;;4.57;;
5981;SDS011;3018;48.730;9.336;2023-10-08T04:43:35;10.88;;;5.15;;
5981;SDS011;3018;48.730;9.336;2023-10-08T04:46:04;7.28;;;5.03;;
5981;SDS011;3018;48.730;9.336;2023-10-08T04:48:33;7.55;;;4.78;;
5981;SDS011;3018;48.730;9.336;2023-10-08T04:51:02;5.53;;;4.13;;
5981;SDS011;3018;48.730;9.336;2023-10-08T04:53:29;7.10;;;4.47;;
5981;SDS011;3018;48.730;9.336;2023-10-08T04:56:01;7.43;;;4.60;;
5981;SDS011;3018;48.730;9.336;2023-10-08T04:58:30;6.55;;;4.88;;
5981;SDS011;3018;48.730;9.336;2023-10-08T05:01:03;7.55;;;4.55;;
5981;SDS011;3018;48.730;9.336;2023-10-08T05:03:43;6.50;;;4.50;;
5981;SDS011;3018;48.730;9.336;2023-10-08T05:06:21;9.23;;;5.25;;
5981;SDS011;3018;48.730;9.336;2023-10-08T05:09:04;6.22;;;4.78;;
5981;SDS011;3018;48.730;9.336;2023-10-08T05:11:36;8.32;;;5.13;;
5981;SDS011;3018;48.730;9.336;2023-10-08T05:14:11;8.82;;;5.38;;
5981;SDS011;3018;48.730;9.336;2023-10-08T05:16:43;7.82;;;5.00;;
5981;SDS011;3018;48.730;9.336;2023-10-08T05:19:25;8.40;;;5.07;;
5981;SDS011;3018;48.730;9.336;2023-10-08T05:22:11;7.68;;;4.97;;
5981;SDS011;3018;48.730;9.336;2023-10-08T05:24:55;7.60;;;4.88;;
5981;SDS011;3018;48.730;9.336;2023-10-08T05:27:32;9.07;;;5.03;;
5981;SDS011;3018;48.730;9.336;2023-10-08T05:30:22;9.88;;;5.30;;
5981;SDS011;3018;48.730;9.336;2023-10-08T05:32:55;8.43;;;4.78;;
5981;SDS011;3018;48.730;9.336;2023-10-08T05:35:38;8.07;;;5.22;;
5981;SDS011;3018;48.730;9.336;2023-10-08T05:38:20;8.77;;;5.10;;
5981;SDS011;3018;48.730;9.336;2023-10-08T05:41:03;9.32;;;5.22;;
5981;SDS011;3018;48.730;9.336;2023-10-08T05:43:58;8.10;;;5.03;;
5981;SDS011;3018;48.730;9.336;2023-10-08T05:46:48;7.80;;;4.65;;
5981;SDS011;3018;48.730;9.336;2023-10-08T05:49:33;6.07;;;4.47;;
5981;SDS011;3018;48.730;9.336;2023-10-08T05:52:07;9.07;;;4.78;;
5981;SDS011;3018;48.730;9.336;2023-10-08T05:54:53;7.63;;;5.28;;
5981;SDS011;3018;48.730;9.336;2023-10-08T05:57:37;7.93;;;5.60;;
5981;SDS011;3018;48.730;9.336;2023-10-08T06:00:06;9.25;;;4.40;;
5981;SDS011;3018;48.730;9.336;2023-10-08T06:02:49;7.57;;;5.20;;
5981;SDS011;3018;48.730;9.336;2023-10-08T06:05:34;9.27;;;5.22;;
5981;SDS011;3018;48.730;9.336;2023-10-08T06:08:08;6.72;;;4.80;;
5981;SDS011;3018;48.730;9.336;2023-10-08T06:10:38;8.23;;;5.25;;
5981;SDS011;3018;48.730;9.336;2023-10-08T06:13:21;11.15;;;5.18;;
5981;SDS011;3018;48.730;9.336;2023-10-08T06:16:11;8.35;;;5.30;;
5981;SDS011;3018;48.730;9.336;2023-10-08T06:18:56;6.82;;;5.15;;
5981;SDS011;3018;48.730;9.336;2023-10-08T06:21:22;5.70;;;4.38;;
5981;SDS011;3018;48.730;9.336;2023-10-08T06:23:51;8.98;;;5.35;;
5981;SDS011;3018;48.730;9.336;2023-10-08T06:26:21;5.97;;;4.72;;
5981;SDS011;3018;48.730;9.336;2023-10-08T06:28:50;5.22;;;4.50;;
5981;SDS011;3018;48.730;9.336;2023-10-08T06:31:22;7.15;;;4.40;;
5981;SDS011;3018;48.730;9.336;2023-10-08T06:33:50;8.68;;;5.25;;
5981;SDS011;3018;48.730;9.336;2023-10-08T06:36:16;8.20;;;5.10;;
5981;SDS011;3018;48.730;9.336;2023-10-08T06:38:48;8.63;;;5.70;;
5981;SDS011;3018;48.730;9.336;2023-10-08T06:41:14;9.45;;;6.18;;
5981;SDS011;3018;48.730;9.336;2023-10-08T06:43:43;6.97;;;5.85;;
5981;SDS011;3018;48.730;9.336;2023-10-08T06:46:10;10.70;;;6.05;;
5981;SDS011;3018;48.730;9.336;2023-10-08T06:48:37;10.85;;;5.80;;
5981;SDS011;3018;48.730;9.336;2023-10-08T06:51:07;9.63;;;6.00;;
5981;SDS011;3018;48.730;9.336;2023-10-08T06:53:38;10.73;;;5.03;;
5981;SDS011;3018;48.730;9.336;2023-10-08T06:56:05;12.00;;;5.28;;
5981;SDS011;3018;48.730;9.336;2023-10-08T06:58:34;9.50;;;5.90;;
5981;SDS011;3018;48.730;9.336;2023-10-08T07:01:01;8.18;;;4.90;;
5981;SDS011;3018;48.730;9.336;2023-10-08T07:03:30;11.57;;;5.30;;
5981;SDS011;3018;48.730;9.336;2023-10-08T07:05:56;9.40;;;6.05;;
5981;SDS011;3018;48.730;9.336;2023-10-08T07:08:25;9.60;;;5.95;;
5981;SDS011;3018;48.730;9.336;2023-10-08T07:10:52;10.68;;;5.72;;
5981;SDS011;3018;48.730;9.336;2023-10-08T07:13:20;10.20;;;5.75;;
5981;SDS011;3018;48.730;9.336;2023-10-08T07:15:47;9.52;;;5.00;;
5981;SDS011;3018;48.730;9.336;2023-10-08T07:18:14;9.75;;;5.28;;
5981;SDS011;3018;48.730;9.336;2023-10-08T07:20:46;10.35;;;5.20;;
5981;SDS011;3018;48.730;9.336;2023-10-08T07:23:19;8.40;;;5.13;;
5981;SDS011;3018;48.730;9.336;2023-10-08T07:25:51;7.53;;;5.40;;
5981;SDS011;3018;48.730;9.336;2023-10-08T07:28:19;12.05;;;6.35;;
5981;SDS011;3018;48.730;9.336;2023-10-08T07:30:46;9.43;;;5.88;;
5981;SDS011;3018;48.730;9.336;2023-10-08T07:33:14;11.27;;;5.50;;
5981;SDS011;3018;48.730;9.336;2023-10-08T07:35:43;7.93;;;5.32;;
5981;SDS011;3018;48.730;9.336;2023-10-08T07:38:16;11.57;;;5.20;;
5981;SDS011;3018;48.730;9.336;2023-10-08T07:40:43;9.13;;;5.20;;
5981;SDS011;3018;48.730;9.336;2023-10-08T07:43:09;10.45;;;5.50;;
5981;SDS011;3018;48.730;9.336;2023-10-08T07:45:37;6.90;;;4.88;;
5981;SDS011;3018;48.730;9.336;2023-10-08T07:48:03;9.95;;;5.50;;
5981;SDS011;3018;48.730;9.336;2023-10-08T07:50:34;11.27;;;5.07;;
5981;SDS011;3018;48.730;9.336;2023-10-08T07:53:03;9.05;;;4.88;;
5981;SDS011;3018;48.730;9.336;2023-10-08T07:55:29;7.35;;;5.47;;
5981;SDS011;3018;48.730;9.336;2023-10-08T07:57:57;8.50;;;5.20;;
5981;SDS011;3018;48.730;9.336;2023-10-08T08:00:23;11.40;;;5.60;;
5981;SDS011;3018;48.730;9.336;2023-10-08T08:02:56;10.52;;;5.30;;
5981;SDS011;3018;48.730;9.336;2023-10-08T08:05:23;11.10;;;5.63;;
5981;SDS011;3018;48.730;9.336;2023-10-08T08:07:50;7.07;;;5.40;;
5981;SDS011;3018;48.730;9.336;2023-10-08T08:10:17;9.68;;;6.07;;
5981;SDS011;3018;48.730;9.336;2023-10-08T08:12:44;7.75;;;5.38;;
5981;SDS011;3018;48.730;9.336;2023-10-08T08:15:11;8.98;;;5.28;;
5981;SDS011;3018;48.730;9.336;2023-10-08T08:17:40;12.10;;;6.20;;
5981;SDS011;3018;48.730;9.336;2023-10-08T08:20:08;13.07;;;6.60;;
5981;SDS011;3018;48.730;9.336;2023-10-08T08:22:43;7.75;;;5.68;;
5981;SDS011;3018;48.730;9.336;2023-10-08T08:25:14;6.82;;;5.00;;
5981;SDS011;3018;48.730;9.336;2023-10-08T08:27:41;7.55;;;5.03;;
5981;SDS011;3018;48.730;9.336;2023-10-08T08:30:09;7.70;;;5.57;;
5981;SDS011;3018;48.730;9.336;2023-10-08T08:32:40;9.40;;;5.75;;
5981;SDS011;3018;48.730;9.336;2023-10-08T08:35:10;9.75;;;6.05;;
5981;SDS011;3018;48.730;9.336;2023-10-08T08:37:36;8.95;;;5.80;;
5981;SDS011;3018;48.730;9.336;2023-10-08T08:40:03;11.23;;;5.70;;
5981;SDS011;3018;48.730;9.336;2023-10-08T08:42:33;8.05;;;4.97;;
5981;SDS011;3018;48.730;9.336;2023-10-08T08:45:01;10.98;;;5.45;;
5981;SDS011;3018;48.730;9.336;2023-10-08T08:47:28;10.35;;;5.38;;
5981;SDS011;3018;48.730;9.336;2023-10-08T08:49:55;8.27;;;4.55;;
5981;SDS011;3018;48.730;9.336;2023-10-08T08:52:26;9.05;;;4.60;;
5981;SDS011;3018;48.730;9.336;2023-10-08T08:54:52;10.20;;;5.10;;
5981;SDS011;3018;48.730;9.336;2023-10-08T08:57:19;11.43;;;5.07;;
5981;SDS011;3018;48.730;9.336;2023-10-08T08:59:48;8.52;;;4.97;;
5981;SDS011;3018;48.730;9.336;2023-10-08T09:02:15;9.20;;;4.90;;
5981;SDS011;3018;48.730;9.336;2023-10-08T09:04:43;7.93;;;4.75;;
5981;SDS011;3018;48.730;9.336;2023-10-08T09:07:10;9.32;;;4.75;;
5981;SDS011;3018;48.730;9.336;2023-10-08T09:09:39;11.40;;;4.68;;
5981;SDS011;3018;48.730;9.336;2023-10-08T09:12:06;8.32;;;4.70;;
5981;SDS011;3018;48.730;9.336;2023-10-08T09:14:35;6.50;;;3.92;;
5981;SDS011;3018;48.730;9.336;2023-10-08T09:17:03;8.65;;;4.88;;
5981;SDS011;3018;48.730;9.336;2023-10-08T09:19:31;11.95;;;4.47;;
5981;SDS011;3018;48.730;9.336;2023-10-08T09:22:02;7.25;;;4.18;;
5981;SDS011;3018;48.730;9.336;2023-10-08T09:24:29;11.35;;;4.28;;
5981;SDS011;3018;48.730;9.336;2023-10-08T09:26:57;9.95;;;3.97;;
5981;SDS011;3018;48.730;9.336;2023-10-08T09:29:24;8.57;;;3.80;;
5981;SDS011;3018;48.730;9.336;2023-10-08T09:31:53;8.80;;;3.83;;
5981;SDS011;3018;48.730;9.336;2023-10-08T09:34:21;9.30;;;4.10;;
5981;SDS011;3018;48.730;9.336;2023-10-08T09:36:48;9.52;;;3.92;;
5981;SDS011;3018;48.730;9.336;2023-10-08T09:39:14;7.57;;;3.78;;
5981;SDS011;3018;48.730;9.336;2023-10-08T09:41:48;8.45;;;3.70;;
5981;SDS011;3018;48.730;9.336;2023-10-08T09:44:17;10.80;;;3.72;;
5981;SDS011;3018;48.730;9.336;2023-10-08T09:46:44;12.20;;;3.72;;
5981;SDS011;3018;48.730;9.336;2023-10-08T09:49:14;8.05;;;3.75;;
5981;SDS011;3018;48.730;9.336;2023-10-08T09:51:42;7.03;;;4.10;;
5981;SDS011;3018;48.730;9.336;2023-10-08T09:54:10;12.30;;;4.03;;
5981;SDS011;3018;48.730;9.336;2023-10-08T09:56:39;8.60;;;4.07;;
5981;SDS011;3018;48.730;9.336;2023-10-08T09:59:05;9.18;;;4.18;;
5981;SDS011;3018;48.730;9.336;2023-10-08T10:01:35;6.47;;;3.60;;
5981;SDS011;3018;48.730;9.336;2023-10-08T10:04:05;8.32;;;3.83;;
5981;SDS011;3018;48.730;9.336;2023-10-08T10:06:31;8.55;;;3.83;;
5981;SDS011;3018;48.730;9.336;2023-10-08T10:08:57;6.15;;;3.33;;
5981;SDS011;3018;48.730;9.336;2023-10-08T10:11:26;8.25;;;3.70;;
5981;SDS011;3018;48.730;9.336;2023-10-08T10:13:57;10.20;;;3.88;;
5981;SDS011;3018;48.730;9.336;2023-10-08T10:16:25;10.63;;;3.83;;
5981;SDS011;3018;48.730;9.336;2023-10-08T10:18:54;12.05;;;4.82;;
5981;SDS011;3018;48.730;9.336;2023-10-08T10:21:25;6.68;;;4.18;;
5981;SDS011;3018;48.730;9.336;2023-10-08T10:23:52;13.57;;;4.90;;
5981;SDS011;3018;48.730;9.336;2023-10-08T10:26:23;3.75;;;3.33;;
5981;SDS011;3018;48.730;9.336;2023-10-08T10:31:35;5.88;;;3.75;;
5981;SDS011;3018;48.730;9.336;2023-10-08T10:34:05;8.23;;;3.88;;
5981;SDS011;3018;48.730;9.336;2023-10-08T10:36:33;7.85;;;3.47;;
5981;SDS011;3018;48.730;9.336;2023-10-08T10:38:59;8.75;;;3.72;;
5981;SDS011;3018;48.730;9.336;2023-10-08T10:41:27;6.05;;;3.63;;
5981;SDS011;3018;48.730;9.336;2023-10-08T10:43:53;8.57;;;3.55;;
5981;SDS011;3018;48.730;9.336;2023-10-08T10:46:19;4.55;;;3.35;;
5981;SDS011;3018;48.730;9.336;2023-10-08T10:48:55;6.15;;;3.40;;
5981;SDS011;3018;48.730;9.336;2023-10-08T10:51:44;8.85;;;4.13;;
5981;SDS011;3018;48.730;9.336;2023-10-08T10:54:11;7.88;;;3.80;;
5981;SDS011;3018;48.730;9.336;2023-10-08T10:56:45;8.80;;;3.38;;
5981;SDS011;3018;48.730;9.336;2023-10-08T10:59:12;3.88;;;3.30;;
5981;SDS011;3018;48.730;9.336;2023-10-08T11:01:44;8.18;;;3.72;;
5981;SDS011;3018;48.730;9.336;2023-10-08T11:04:11;11.40;;;3.83;;
5981;SDS011;3018;48.730;9.336;2023-10-08T11:06:41;6.95;;;3.67;;
5981;SDS011;3018;48.730;9.336;2023-10-08T11:09:09;7.85;;;3.45;;
5981;SDS011;3018;48.730;9.336;2023-10-08T11:11:42;6.85;;;3.97;;
5981;SDS011;3018;48.730;9.336;2023-10-08T11:14:11;12.50;;;3.67;;
5981;SDS011;3018;48.730;9.336;2023-10-08T11:16:41;5.63;;;3.47;;
5981;SDS011;3018;48.730;9.336;2023-10-08T11:19:08;8.82;;;3.72;;
5981;SDS011;3018;48.730;9.336;2023-10-08T11:21:47;9.73;;;3.40;;
5981;SDS011;3018;48.730;9.336;2023-10-08T11:24:26;8.07;;;3.58;;
5981;SDS011;3018;48.730;9.336;2023-10-08T11:26:52;5.93;;;3.45;;
5981;SDS011;3018;48.730;9.336;2023-10-08T11:29:31;6.32;;;3.58;;
5981;SDS011;3018;48.730;9.336;2023-10-08T11:31:57;6.50;;;3.53;;
5981;SDS011;3018;48.730;9.336;2023-10-08T11:34:30;4.50;;;3.47;;
5981;SDS011;3018;48.730;9.336;2023-10-08T11:37:02;5.38;;;3.67;;
5981;SDS011;3018;48.730;9.336;2023-10-08T11:39:39;12.00;;;4.60;;
5981;SDS011;3018;48.730;9.336;2023-10-08T11:42:10;11.60;;;4.35;;
5981;SDS011;3018;48.730;9.336;2023-10-08T11:44:51;8.80;;;4.15;;
5981;SDS011;3018;48.730;9.336;2023-10-08T11:47:18;10.65;;;3.83;;
5981;SDS011;3018;48.730;9.336;2023-10-08T11:49:47;11.68;;;4.07;;
5981;SDS011;3018;48.730;9.336;2023-10-08T11:52:15;6.45;;;4.18;;
5981;SDS011;3018;48.730;9.336;2023-10-08T11:54:47;7.25;;;3.80;;
5981;SDS011;3018;48.730;9.336;2023-10-08T11:57:14;13.68;;;4.15;;
5981;SDS011;3018;48.730;9.336;2023-10-08T11:59:44;6.57;;;3.38;;
5981;SDS011;3018;48.730;9.336;2023-10-08T12:02:12;9.45;;;4.15;;
5981;SDS011;3018;48.730;9.336;2023-10-08T12:04:41;9.48;;;3.67;;
5981;SDS011;3018;48.730;9.336;2023-10-08T12:07:09;10.98;;;3.53;;
5981;SDS011;3018;48.730;9.336;2023-10-08T12:09:36;6.10;;;3.65;;
5981;SDS011;3018;48.730;9.336;2023-10-08T12:12:06;10.73;;;4.80;;
5981;SDS011;3018;48.730;9.336;2023-10-08T12:14:34;11.30;;;3.50;;
5981;SDS011;3018;48.730;9.336;2023-10-08T12:17:00;9.60;;;3.85;;
5981;SDS011;3018;48.730;9.336;2023-10-08T12:19:36;9.23;;;3.95;;
5981;SDS011;3018;48.730;9.336;2023-10-08T12:22:09;11.70;;;4.10;;
5981;SDS011;3018;48.730;9.336;2023-10-08T12:24:43;12.10;;;3.88;;
5981;SDS011;3018;48.730;9.336;2023-10-08T12:27:10;10.07;;;4.00;;
5981;SDS011;3018;48.730;9.336;2023-10-08T12:29:37;8.90;;;4.05;;
5981;SDS011;3018;48.730;9.336;2023-10-08T12:32:04;9.70;;;4.57;;
5981;SDS011;3018;48.730;9.336;2023-10-08T12:34:34;9.43;;;4.05;;
5981;SDS011;3018;48.730;9.336;2023-10-08T12:37:00;12.10;;;3.72;;
5981;SDS011;3018;48.730;9.336;2023-10-08T12:39:26;11.53;;;4.70;;
5981;SDS011;3018;48.730;9.336;2023-10-08T12:41:53;8.07;;;4.18;;
5981;SDS011;3018;48.730;9.336;2023-10-08T12:44:21;10.90;;;4.13;;
5981;SDS011;3018;48.730;9.336;2023-10-08T12:46:48;9.57;;;3.75;;
5981;SDS011;3018;48.730;9.336;2023-10-08T12:49:14;12.00;;;4.03;;
5981;SDS011;3018;48.730;9.336;2023-10-08T12:51:41;15.40;;;4.18;;
5981;SDS011;3018;48.730;9.336;2023-10-08T12:54:10;7.72;;;3.90;;
5981;SDS011;3018;48.730;9.336;2023-10-08T12:56:39;8.70;;;4.10;;
5981;SDS011;3018;48.730;9.336;2023-10-08T12:59:10;6.07;;;3.70;;
5981;SDS011;3018;48.730;9.336;2023-10-08T13:01:46;13.48;;;4.47;;
5981;SDS011;3018;48.730;9.336;2023-10-08T13:04:16;9.35;;;4.63;;
5981;SDS011;3018;48.730;9.336;2023-10-08T13:06:46;7.20;;;3.85;;
5981;SDS011;3018;48.730;9.336;2023-10-08T13:09:13;10.13;;;4.38;;
5981;SDS011;3018;48.730;9.336;2023-10-08T13:11:39;8.65;;;4.15;;
5981;SDS011;3018;48.730;9.336;2023-10-08T13:14:05;13.40;;;4.43;;
5981;SDS011;3018;48.730;9.336;2023-10-08T13:16:32;7.07;;;3.50;;
5981;SDS011;3018;48.730;9.336;2023-10-08T13:19:03;11.82;;;4.00;;
5981;SDS011;3018;48.730;9.336;2023-10-08T13:21:33;7.90;;;4.32;;
5981;SDS011;3018;48.730;9.336;2023-10-08T13:23:58;11.63;;;4.20;;
5981;SDS011;3018;48.730;9.336;2023-10-08T13:26:25;14.38;;;4.40;;
5981;SDS011;3018;48.730;9.336;2023-10-08T13:28:56;15.52;;;4.22;;
5981;SDS011;3018;48.730;9.336;2023-10-08T13:31:23;10.85;;;3.92;;
5981;SDS011;3018;48.730;9.336;2023-10-08T13:33:50;13.88;;;3.83;;
5981;SDS011;3018;48.730;9.336;2023-10-08T13:36:18;13.30;;;4.47;;
5981;SDS011;3018;48.730;9.336;2023-10-08T13:38:45;11.10;;;4.43;;
5981;SDS011;3018;48.730;9.336;2023-10-08T13:41:12;8.50;;;4.10;;
5981;SDS011;3018;48.730;9.336;2023-10-08T13:43:41;9.02;;;4.20;;
5981;SDS011;3018;48.730;9.336;2023-10-08T13:46:10;13.63;;;4.70;;
5981;SDS011;3018;48.730;9.336;2023-10-08T13:48:39;9.18;;;4.50;;
5981;SDS011;3018;48.730;9.336;2023-10-08T13:51:06;8.32;;;4.05;;
5981;SDS011;3018;48.730;9.336;2023-10-08T13:53:40;20.20;;;4.57;;
5981;SDS011;3018;48.730;9.336;2023-10-08T13:56:10;10.32;;;4.30;;
5981;SDS011;3018;48.730;9.336;2023-10-08T13:58:36;10.40;;;4.40;;
5981;SDS011;3018;48.730;9.336;2023-10-08T14:01:11;12.80;;;4.65;;
5981;SDS011;3018;48.730;9.336;2023-10-08T14:03:44;7.40;;;3.95;;
5981;SDS011;3018;48.730;9.336;2023-10-08T14:06:10;16.15;;;4.38;;
5981;SDS011;3018;48.730;9.336;2023-10-08T14:08:36;13.20;;;4.13;;
5981;SDS011;3018;48.730;9.336;2023-10-08T14:11:05;11.70;;;4.28;;
5981;SDS011;3018;48.730;9.336;2023-10-08T14:13:31;11.73;;;4.22;;
5981;SDS011;3018;48.730;9.336;2023-10-08T14:15:59;10.73;;;4.53;;
5981;SDS011;3018;48.730;9.336;2023-10-08T14:18:30;12.80;;;4.32;;
5981;SDS011;3018;48.730;9.336;2023-10-08T14:21:05;14.02;;;4.65;;
5981;SDS011;3018;48.730;9.336;2023-10-08T14:23:35;12.00;;;5.00;;
5981;SDS011;3018;48.730;9.336;2023-10-08T14:26:04;12.27;;;4.63;;
5981;SDS011;3018;48.730;9.336;2023-10-08T14:28:33;9.88;;;5.13;;
5981;SDS011;3018;48.730;9.336;2023-10-08T14:31:16;11.60;;;4.78;;
5981;SDS011;3018;48.730;9.336;2023-10-08T14:33:42;9.45;;;4.32;;
5981;SDS011;3018;48.730;9.336;2023-10-08T14:36:20;14.00;;;5.00;;
5981;SDS011;3018;48.730;9.336;2023-10-08T14:39:04;11.95;;;4.15;;
5981;SDS011;3018;48.730;9.336;2023-10-08T14:41:48;7.78;;;4.85;;
5981;SDS011;3018;48.730;9.336;2023-10-08T14:44:33;13.40;;;4.30;;
5981;SDS011;3018;48.730;9.336;2023-10-08T14:47:00;13.73;;;4.22;;
5981;SDS011;3018;48.730;9.336;2023-10-08T14:49:26;11.75;;;4.40;;
5981;SDS011;3018;48.730;9.336;2023-10-08T14:51:52;9.18;;;3.97;;
5981;SDS011;3018;48.730;9.336;2023-10-08T14:54:19;10.18;;;4.35;;
5981;SDS011;3018;48.730;9.336;2023-10-08T14:56:46;11.77;;;3.97;;
5981;SDS011;3018;48.730;9.336;2023-10-08T14:59:14;8.38;;;4.00;;
5981;SDS011;3018;48.730;9.336;2023-10-08T15:01:41;8.45;;;4.25;;
5981;SDS011;3018;48.730;9.336;2023-10-08T15:04:09;11.18;;;4.78;;
5981;SDS011;3018;48.730;9.336;2023-10-08T15:06:36;6.93;;;4.05;;
5981;SDS011;3018;48.730;9.336;2023-10-08T15:09:03;8.80;;;4.68;;
5981;SDS011;3018;48.730;9.336;2023-10-08T15:11:30;6.85;;;4.38;;
5981;SDS011;3018;48.730;9.336;2023-10-08T15:13:56;8.25;;;4.35;;
5981;SDS011;3018;48.730;9.336;2023-10-08T15:16:23;15.00;;;4.03;;
5981;SDS011;3018;48.730;9.336;2023-10-08T15:18:52;8.48;;;3.95;;
5981;SDS011;3018;48.730;9.336;2023-10-08T15:21:21;13.35;;;4.38;;
5981;SDS011;3018;48.730;9.336;2023-10-08T15:23:49;9.98;;;4.30;;
5981;SDS011;3018;48.730;9.336;2023-10-08T15:26:16;9.82;;;4.45;;
5981;SDS011;3018;48.730;9.336;2023-10-08T15:28:42;12.02;;;4.53;;
5981;SDS011;3018;48.730;9.336;2023-10-08T15:31:08;12.05;;;4.05;;
5981;SDS011;3018;48.730;9.336;2023-10-08T15:33:35;7.35;;;3.70;;